sensor_id;sensor_type;location;lat;lon;timestamp;P1;durP1;ratioP1;P2;durP2;ratioP2
2912;SDS011;1466;48.778;9.166;2023-02-16T00:02:22;32.80;;;14.73;;
2912;SDS011;1466;48.778;9.166;2023-02-16T00:04:48;31.13;;;15.07;;
2912;SDS011;1466;48.778;9.166;2023-02-16T00:07:14;31.80;;;14.70;;
2912;SDS011;1466;48.778;9.166;2023-02-16T00:09:39;36.53;;;15.50;;
2912;SDS011;1466;48.778;9.166;2023-02-16T00:12:07;32.23;;;14.47;;
2912;SDS011;1466;48.778;9.166;2023-02-16T00:15:04;31.17;;;14.20;;
2912;SDS011;1466;48.778;9.166;2023-02-16T00:17:40;34.20;;;14.45;;
2912;SDS011;1466;48.778;9.166;2023-02-16T00:20:08;32.70;;;14.50;;
2912;SDS011;1466;48.778;9.166;2023-02-16T00:22:41;37.25;;;14.73;;
2912;SDS011;1466;48.778;9.166;2023-02-16T00:25:06;36.00;;;14.23;;
2912;SDS011;1466;48.778;9.166;2023-02-16T00:27:32;32.83;;;12.80;;
2912;SDS011;1466;48.778;9.166;2023-02-16T00:29:58;27.83;;;12.80;;
2912;SDS011;1466;48.778;9.166;2023-02-16T00:32:23;23.47;;;11.20;;
2912;SDS011;1466;48.778;9.166;2023-02-16T00:34:49;33.83;;;12.30;;
2912;SDS011;1466;48.778;9.166;2023-02-16T00:37:14;28.10;;;12.20;;
2912;SDS011;1466;48.778;9.166;2023-02-16T00:39:40;36.03;;;14.37;;
2912;SDS011;1466;48.778;9.166;2023-02-16T00:42:25;29.10;;;13.68;;
2912;SDS011;1466;48.778;9.166;2023-02-16T00:44:55;29.67;;;11.60;;
2912;SDS011;1466;48.778;9.166;2023-02-16T00:50:18;31.67;;;13.98;;
2912;SDS011;1466;48.778;9.166;2023-02-16T00:52:43;38.05;;;14.70;;
2912;SDS011;1466;48.778;9.166;2023-02-16T00:55:11;47.60;;;14.27;;
2912;SDS011;1466;48.778;9.166;2023-02-16T00:57:42;32.17;;;14.18;;
2912;SDS011;1466;48.778;9.166;2023-02-16T01:00:34;30.30;;;13.98;;
2912;SDS011;1466;48.778;9.166;2023-02-16T01:03:06;26.30;;;12.63;;
2912;SDS011;1466;48.778;9.166;2023-02-16T01:05:38;27.48;;;11.80;;
2912;SDS011;1466;48.778;9.166;2023-02-16T01:08:08;28.10;;;13.20;;
2912;SDS011;1466;48.778;9.166;2023-02-16T01:10:58;38.50;;;14.85;;
2912;SDS011;1466;48.778;9.166;2023-02-16T01:13:44;40.75;;;14.95;;
2912;SDS011;1466;48.778;9.166;2023-02-16T01:16:17;38.30;;;13.35;;
2912;SDS011;1466;48.778;9.166;2023-02-16T01:18:48;25.52;;;11.82;;
2912;SDS011;1466;48.778;9.166;2023-02-16T01:21:14;35.00;;;13.90;;
2912;SDS011;1466;48.778;9.166;2023-02-16T01:23:40;31.07;;;12.30;;
2912;SDS011;1466;48.778;9.166;2023-02-16T01:26:06;28.13;;;13.90;;
2912;SDS011;1466;48.778;9.166;2023-02-16T01:28:38;38.58;;;14.20;;
2912;SDS011;1466;48.778;9.166;2023-02-16T01:31:03;30.93;;;13.30;;
2912;SDS011;1466;48.778;9.166;2023-02-16T01:33:30;32.22;;;14.15;;
2912;SDS011;1466;48.778;9.166;2023-02-16T01:35:56;33.30;;;14.30;;
2912;SDS011;1466;48.778;9.166;2023-02-16T01:38:23;25.47;;;12.80;;
2912;SDS011;1466;48.778;9.166;2023-02-16T01:43:25;31.77;;;13.65;;
2912;SDS011;1466;48.778;9.166;2023-02-16T01:45:58;29.23;;;11.73;;
2912;SDS011;1466;48.778;9.166;2023-02-16T01:48:30;33.35;;;12.75;;
2912;SDS011;1466;48.778;9.166;2023-02-16T01:56:32;34.53;;;12.35;;
2912;SDS011;1466;48.778;9.166;2023-02-16T01:59:08;21.75;;;10.45;;
2912;SDS011;1466;48.778;9.166;2023-02-16T02:01:57;27.65;;;11.50;;
2912;SDS011;1466;48.778;9.166;2023-02-16T02:07:31;35.00;;;12.55;;
2912;SDS011;1466;48.778;9.166;2023-02-16T02:15:09;32.60;;;13.85;;
2912;SDS011;1466;48.778;9.166;2023-02-16T02:17:37;27.85;;;11.98;;
2912;SDS011;1466;48.778;9.166;2023-02-16T02:33:59;26.92;;;12.80;;
2912;SDS011;1466;48.778;9.166;2023-02-16T02:36:44;35.47;;;13.13;;
2912;SDS011;1466;48.778;9.166;2023-02-16T02:45:07;35.67;;;13.82;;
2912;SDS011;1466;48.778;9.166;2023-02-16T02:47:38;26.58;;;11.63;;
2912;SDS011;1466;48.778;9.166;2023-02-16T02:50:29;30.95;;;13.48;;
2912;SDS011;1466;48.778;9.166;2023-02-16T02:53:00;32.80;;;12.05;;
2912;SDS011;1466;48.778;9.166;2023-02-16T02:55:28;26.08;;;12.82;;
2912;SDS011;1466;48.778;9.166;2023-02-16T02:58:15;37.50;;;14.20;;
2912;SDS011;1466;48.778;9.166;2023-02-16T03:01:02;22.98;;;10.55;;
2912;SDS011;1466;48.778;9.166;2023-02-16T03:03:30;33.45;;;12.15;;
2912;SDS011;1466;48.778;9.166;2023-02-16T03:08:35;28.45;;;13.02;;
2912;SDS011;1466;48.778;9.166;2023-02-16T03:13:52;38.80;;;12.85;;
2912;SDS011;1466;48.778;9.166;2023-02-16T03:17:08;24.17;;;11.88;;
2912;SDS011;1466;48.778;9.166;2023-02-16T03:19:35;36.22;;;14.10;;
2912;SDS011;1466;48.778;9.166;2023-02-16T03:22:22;30.50;;;12.82;;
2912;SDS011;1466;48.778;9.166;2023-02-16T03:25:07;26.45;;;13.45;;
2912;SDS011;1466;48.778;9.166;2023-02-16T03:27:51;36.00;;;14.05;;
2912;SDS011;1466;48.778;9.166;2023-02-16T03:30:37;28.10;;;13.93;;
2912;SDS011;1466;48.778;9.166;2023-02-16T03:33:03;27.93;;;12.73;;
2912;SDS011;1466;48.778;9.166;2023-02-16T03:35:29;24.53;;;11.60;;
2912;SDS011;1466;48.778;9.166;2023-02-16T03:37:55;33.00;;;13.52;;
2912;SDS011;1466;48.778;9.166;2023-02-16T03:40:21;28.47;;;13.10;;
2912;SDS011;1466;48.778;9.166;2023-02-16T03:42:54;33.85;;;13.40;;
2912;SDS011;1466;48.778;9.166;2023-02-16T03:45:22;32.95;;;13.75;;
2912;SDS011;1466;48.778;9.166;2023-02-16T03:47:48;41.00;;;14.45;;
2912;SDS011;1466;48.778;9.166;2023-02-16T03:50:13;22.23;;;11.10;;
2912;SDS011;1466;48.778;9.166;2023-02-16T03:52:39;30.45;;;12.23;;
2912;SDS011;1466;48.778;9.166;2023-02-16T03:55:05;30.17;;;13.27;;
2912;SDS011;1466;48.778;9.166;2023-02-16T03:57:31;29.25;;;12.25;;
2912;SDS011;1466;48.778;9.166;2023-02-16T03:59:56;26.00;;;11.90;;
2912;SDS011;1466;48.778;9.166;2023-02-16T04:02:22;26.73;;;12.03;;
2912;SDS011;1466;48.778;9.166;2023-02-16T04:04:49;25.63;;;11.43;;
2912;SDS011;1466;48.778;9.166;2023-02-16T04:07:15;25.63;;;11.70;;
2912;SDS011;1466;48.778;9.166;2023-02-16T04:09:40;20.20;;;11.00;;
2912;SDS011;1466;48.778;9.166;2023-02-16T04:12:06;23.97;;;10.13;;
2912;SDS011;1466;48.778;9.166;2023-02-16T04:14:50;30.52;;;11.75;;
2912;SDS011;1466;48.778;9.166;2023-02-16T04:17:15;26.53;;;12.37;;
2912;SDS011;1466;48.778;9.166;2023-02-16T04:19:41;37.03;;;12.70;;
2912;SDS011;1466;48.778;9.166;2023-02-16T04:22:07;24.43;;;11.17;;
2912;SDS011;1466;48.778;9.166;2023-02-16T04:24:32;32.63;;;11.27;;
2912;SDS011;1466;48.778;9.166;2023-02-16T04:26:58;26.63;;;10.97;;
2912;SDS011;1466;48.778;9.166;2023-02-16T04:29:23;23.57;;;11.90;;
2912;SDS011;1466;48.778;9.166;2023-02-16T04:31:49;18.40;;;10.10;;
2912;SDS011;1466;48.778;9.166;2023-02-16T04:34:15;35.73;;;13.03;;
2912;SDS011;1466;48.778;9.166;2023-02-16T04:36:40;31.67;;;11.70;;
2912;SDS011;1466;48.778;9.166;2023-02-16T04:39:06;26.53;;;11.20;;
2912;SDS011;1466;48.778;9.166;2023-02-16T04:41:31;25.67;;;11.57;;
2912;SDS011;1466;48.778;9.166;2023-02-16T04:43:57;24.27;;;12.10;;
2912;SDS011;1466;48.778;9.166;2023-02-16T04:46:23;32.20;;;12.10;;
2912;SDS011;1466;48.778;9.166;2023-02-16T04:48:48;30.90;;;13.27;;
2912;SDS011;1466;48.778;9.166;2023-02-16T04:51:14;27.40;;;14.27;;
2912;SDS011;1466;48.778;9.166;2023-02-16T04:53:39;32.50;;;13.13;;
2912;SDS011;1466;48.778;9.166;2023-02-16T04:56:08;27.23;;;10.90;;
2912;SDS011;1466;48.778;9.166;2023-02-16T04:58:34;29.80;;;12.23;;
2912;SDS011;1466;48.778;9.166;2023-02-16T05:01:00;23.10;;;10.50;;
2912;SDS011;1466;48.778;9.166;2023-02-16T05:03:26;32.80;;;13.73;;
2912;SDS011;1466;48.778;9.166;2023-02-16T05:05:52;25.30;;;13.50;;
2912;SDS011;1466;48.778;9.166;2023-02-16T05:08:17;29.33;;;12.07;;
2912;SDS011;1466;48.778;9.166;2023-02-16T05:10:43;35.93;;;13.60;;
2912;SDS011;1466;48.778;9.166;2023-02-16T05:13:12;26.60;;;12.60;;
2912;SDS011;1466;48.778;9.166;2023-02-16T05:15:56;25.85;;;11.38;;
2912;SDS011;1466;48.778;9.166;2023-02-16T05:18:21;28.87;;;12.10;;
2912;SDS011;1466;48.778;9.166;2023-02-16T05:20:47;28.37;;;12.30;;
2912;SDS011;1466;48.778;9.166;2023-02-16T05:23:31;31.67;;;13.20;;
2912;SDS011;1466;48.778;9.166;2023-02-16T05:25:56;31.73;;;12.90;;
2912;SDS011;1466;48.778;9.166;2023-02-16T05:28:22;26.13;;;12.63;;
2912;SDS011;1466;48.778;9.166;2023-02-16T05:30:48;23.03;;;11.37;;
2912;SDS011;1466;48.778;9.166;2023-02-16T05:33:13;33.60;;;12.90;;
2912;SDS011;1466;48.778;9.166;2023-02-16T05:35:39;40.87;;;14.47;;
2912;SDS011;1466;48.778;9.166;2023-02-16T05:38:04;36.80;;;14.37;;
2912;SDS011;1466;48.778;9.166;2023-02-16T05:40:30;23.23;;;11.57;;
2912;SDS011;1466;48.778;9.166;2023-02-16T05:42:55;38.93;;;15.60;;
2912;SDS011;1466;48.778;9.166;2023-02-16T05:45:21;25.43;;;14.10;;
2912;SDS011;1466;48.778;9.166;2023-02-16T05:47:47;49.93;;;16.00;;
2912;SDS011;1466;48.778;9.166;2023-02-16T05:50:12;33.97;;;13.10;;
2912;SDS011;1466;48.778;9.166;2023-02-16T05:52:38;27.80;;;12.90;;
2912;SDS011;1466;48.778;9.166;2023-02-16T05:55:03;29.43;;;14.10;;
2912;SDS011;1466;48.778;9.166;2023-02-16T05:57:29;28.42;;;12.68;;
2912;SDS011;1466;48.778;9.166;2023-02-16T05:59:58;28.17;;;11.90;;
2912;SDS011;1466;48.778;9.166;2023-02-16T06:02:24;28.83;;;13.07;;
2912;SDS011;1466;48.778;9.166;2023-02-16T06:04:49;26.70;;;12.63;;
2912;SDS011;1466;48.778;9.166;2023-02-16T06:07:15;30.50;;;12.53;;
2912;SDS011;1466;48.778;9.166;2023-02-16T06:09:41;24.50;;;10.20;;
2912;SDS011;1466;48.778;9.166;2023-02-16T06:12:06;34.53;;;11.93;;
2912;SDS011;1466;48.778;9.166;2023-02-16T06:14:32;27.97;;;12.70;;
2912;SDS011;1466;48.778;9.166;2023-02-16T06:16:57;32.80;;;12.83;;
2912;SDS011;1466;48.778;9.166;2023-02-16T06:19:28;33.78;;;13.27;;
2912;SDS011;1466;48.778;9.166;2023-02-16T06:21:54;44.30;;;14.70;;
2912;SDS011;1466;48.778;9.166;2023-02-16T06:24:19;31.23;;;13.90;;
2912;SDS011;1466;48.778;9.166;2023-02-16T06:26:45;27.57;;;12.83;;
2912;SDS011;1466;48.778;9.166;2023-02-16T06:29:11;24.30;;;12.03;;
2912;SDS011;1466;48.778;9.166;2023-02-16T06:31:36;29.03;;;12.37;;
2912;SDS011;1466;48.778;9.166;2023-02-16T06:34:02;38.43;;;14.90;;
2912;SDS011;1466;48.778;9.166;2023-02-16T06:36:28;40.60;;;14.07;;
2912;SDS011;1466;48.778;9.166;2023-02-16T06:38:54;45.47;;;16.63;;
2912;SDS011;1466;48.778;9.166;2023-02-16T06:41:20;63.23;;;17.87;;
2912;SDS011;1466;48.778;9.166;2023-02-16T06:44:05;38.90;;;13.95;;
2912;SDS011;1466;48.778;9.166;2023-02-16T06:46:32;31.70;;;13.90;;
2912;SDS011;1466;48.778;9.166;2023-02-16T06:48:58;45.43;;;13.90;;
2912;SDS011;1466;48.778;9.166;2023-02-16T06:51:24;35.70;;;13.35;;
2912;SDS011;1466;48.778;9.166;2023-02-16T06:53:50;36.47;;;13.50;;
2912;SDS011;1466;48.778;9.166;2023-02-16T06:56:15;27.30;;;12.37;;
2912;SDS011;1466;48.778;9.166;2023-02-16T06:58:41;36.47;;;13.83;;
2912;SDS011;1466;48.778;9.166;2023-02-16T07:01:06;31.57;;;11.80;;
2912;SDS011;1466;48.778;9.166;2023-02-16T07:03:32;30.67;;;12.57;;
2912;SDS011;1466;48.778;9.166;2023-02-16T07:05:59;35.65;;;12.85;;
2912;SDS011;1466;48.778;9.166;2023-02-16T07:08:24;39.73;;;13.33;;
2912;SDS011;1466;48.778;9.166;2023-02-16T07:10:51;37.50;;;15.43;;
2912;SDS011;1466;48.778;9.166;2023-02-16T07:13:17;32.80;;;15.93;;
2912;SDS011;1466;48.778;9.166;2023-02-16T07:15:43;33.90;;;14.33;;
2912;SDS011;1466;48.778;9.166;2023-02-16T07:18:11;32.13;;;13.80;;
2912;SDS011;1466;48.778;9.166;2023-02-16T07:20:37;31.33;;;11.65;;
2912;SDS011;1466;48.778;9.166;2023-02-16T07:23:03;29.73;;;12.83;;
2912;SDS011;1466;48.778;9.166;2023-02-16T07:25:28;24.60;;;13.17;;
2912;SDS011;1466;48.778;9.166;2023-02-16T07:27:54;28.90;;;13.00;;
2912;SDS011;1466;48.778;9.166;2023-02-16T07:30:20;34.13;;;12.67;;
2912;SDS011;1466;48.778;9.166;2023-02-16T07:32:46;30.97;;;13.27;;
2912;SDS011;1466;48.778;9.166;2023-02-16T07:35:12;26.47;;;12.20;;
2912;SDS011;1466;48.778;9.166;2023-02-16T07:37:37;31.57;;;13.03;;
2912;SDS011;1466;48.778;9.166;2023-02-16T07:40:04;24.23;;;12.00;;
2912;SDS011;1466;48.778;9.166;2023-02-16T07:42:30;42.85;;;14.52;;
2912;SDS011;1466;48.778;9.166;2023-02-16T07:44:57;46.17;;;15.55;;
2912;SDS011;1466;48.778;9.166;2023-02-16T07:47:23;24.60;;;12.13;;
2912;SDS011;1466;48.778;9.166;2023-02-16T07:49:48;43.60;;;15.30;;
2912;SDS011;1466;48.778;9.166;2023-02-16T07:52:14;28.70;;;13.50;;
2912;SDS011;1466;48.778;9.166;2023-02-16T07:54:40;37.70;;;13.53;;
2912;SDS011;1466;48.778;9.166;2023-02-16T07:57:05;29.13;;;13.43;;
2912;SDS011;1466;48.778;9.166;2023-02-16T07:59:31;32.47;;;14.03;;
2912;SDS011;1466;48.778;9.166;2023-02-16T08:01:57;31.20;;;14.10;;
2912;SDS011;1466;48.778;9.166;2023-02-16T08:04:22;35.97;;;14.67;;
2912;SDS011;1466;48.778;9.166;2023-02-16T08:06:48;23.47;;;12.63;;
2912;SDS011;1466;48.778;9.166;2023-02-16T08:09:14;38.60;;;13.35;;
2912;SDS011;1466;48.778;9.166;2023-02-16T08:11:40;30.40;;;13.57;;
2912;SDS011;1466;48.778;9.166;2023-02-16T08:14:06;35.10;;;14.13;;
2912;SDS011;1466;48.778;9.166;2023-02-16T08:16:32;42.20;;;15.10;;
2912;SDS011;1466;48.778;9.166;2023-02-16T08:18:58;32.23;;;13.90;;
2912;SDS011;1466;48.778;9.166;2023-02-16T08:21:28;38.78;;;14.65;;
2912;SDS011;1466;48.778;9.166;2023-02-16T08:24:03;27.83;;;13.82;;
2912;SDS011;1466;48.778;9.166;2023-02-16T08:26:34;38.72;;;15.73;;
2912;SDS011;1466;48.778;9.166;2023-02-16T08:29:04;29.75;;;13.95;;
2912;SDS011;1466;48.778;9.166;2023-02-16T08:31:32;30.95;;;14.02;;
2912;SDS011;1466;48.778;9.166;2023-02-16T08:34:00;29.80;;;14.30;;
2912;SDS011;1466;48.778;9.166;2023-02-16T08:36:28;29.50;;;13.70;;
2912;SDS011;1466;48.778;9.166;2023-02-16T08:38:57;29.48;;;13.23;;
2912;SDS011;1466;48.778;9.166;2023-02-16T08:41:24;32.50;;;13.77;;
2912;SDS011;1466;48.778;9.166;2023-02-16T08:43:54;38.67;;;15.60;;
2912;SDS011;1466;48.778;9.166;2023-02-16T08:46:20;33.95;;;15.63;;
2912;SDS011;1466;48.778;9.166;2023-02-16T08:48:46;33.42;;;14.70;;
2912;SDS011;1466;48.778;9.166;2023-02-16T08:51:15;37.63;;;15.40;;
2912;SDS011;1466;48.778;9.166;2023-02-16T08:53:42;38.22;;;16.38;;
2912;SDS011;1466;48.778;9.166;2023-02-16T08:56:09;37.67;;;15.25;;
2912;SDS011;1466;48.778;9.166;2023-02-16T08:58:35;36.70;;;15.38;;
2912;SDS011;1466;48.778;9.166;2023-02-16T09:01:08;39.33;;;15.43;;
2912;SDS011;1466;48.778;9.166;2023-02-16T09:03:35;39.83;;;15.70;;
2912;SDS011;1466;48.778;9.166;2023-02-16T09:06:03;42.40;;;16.17;;
2912;SDS011;1466;48.778;9.166;2023-02-16T09:08:29;32.70;;;14.82;;
2912;SDS011;1466;48.778;9.166;2023-02-16T09:11:03;32.97;;;14.15;;
2912;SDS011;1466;48.778;9.166;2023-02-16T09:13:31;28.23;;;12.60;;
2912;SDS011;1466;48.778;9.166;2023-02-16T09:16:05;47.75;;;17.05;;
2912;SDS011;1466;48.778;9.166;2023-02-16T09:18:33;40.05;;;15.35;;
2912;SDS011;1466;48.778;9.166;2023-02-16T09:21:05;43.28;;;17.48;;
2912;SDS011;1466;48.778;9.166;2023-02-16T09:23:35;36.78;;;16.40;;
2912;SDS011;1466;48.778;9.166;2023-02-16T09:26:01;54.60;;;18.13;;
2912;SDS011;1466;48.778;9.166;2023-02-16T09:28:30;44.13;;;16.05;;
2912;SDS011;1466;48.778;9.166;2023-02-16T09:30:56;39.07;;;16.00;;
2912;SDS011;1466;48.778;9.166;2023-02-16T09:33:22;36.03;;;15.70;;
2912;SDS011;1466;48.778;9.166;2023-02-16T09:35:48;26.50;;;13.23;;
2912;SDS011;1466;48.778;9.166;2023-02-16T09:38:14;29.67;;;14.70;;
2912;SDS011;1466;48.778;9.166;2023-02-16T09:40:41;33.20;;;15.05;;
2912;SDS011;1466;48.778;9.166;2023-02-16T09:43:11;36.75;;;15.20;;
2912;SDS011;1466;48.778;9.166;2023-02-16T09:45:42;29.10;;;15.23;;
2912;SDS011;1466;48.778;9.166;2023-02-16T09:48:22;36.28;;;14.75;;
2912;SDS011;1466;48.778;9.166;2023-02-16T09:50:59;26.52;;;14.48;;
2912;SDS011;1466;48.778;9.166;2023-02-16T09:53:32;32.65;;;15.25;;
2912;SDS011;1466;48.778;9.166;2023-02-16T09:56:11;29.75;;;13.93;;
2912;SDS011;1466;48.778;9.166;2023-02-16T09:58:42;32.92;;;15.50;;
2912;SDS011;1466;48.778;9.166;2023-02-16T10:01:36;34.85;;;15.27;;
2912;SDS011;1466;48.778;9.166;2023-02-16T10:07:31;45.42;;;16.30;;
2912;SDS011;1466;48.778;9.166;2023-02-16T10:10:00;30.23;;;13.82;;
2912;SDS011;1466;48.778;9.166;2023-02-16T10:12:28;40.90;;;11.63;;
2912;SDS011;1466;48.778;9.166;2023-02-16T10:15:08;24.15;;;10.35;;
2912;SDS011;1466;48.778;9.166;2023-02-16T10:17:45;28.05;;;11.02;;
2912;SDS011;1466;48.778;9.166;2023-02-16T10:25:56;33.28;;;10.85;;
2912;SDS011;1466;48.778;9.166;2023-02-16T10:31:30;23.23;;;9.25;;
2912;SDS011;1466;48.778;9.166;2023-02-16T10:34:16;32.13;;;8.93;;
2912;SDS011;1466;48.778;9.166;2023-02-16T10:47:50;15.10;;;7.10;;
2912;SDS011;1466;48.778;9.166;2023-02-16T10:50:23;25.00;;;10.23;;
2912;SDS011;1466;48.778;9.166;2023-02-16T10:53:14;21.15;;;7.82;;
2912;SDS011;1466;48.778;9.166;2023-02-16T10:56:01;29.75;;;10.80;;
2912;SDS011;1466;48.778;9.166;2023-02-16T10:58:55;24.92;;;10.20;;
2912;SDS011;1466;48.778;9.166;2023-02-16T11:01:38;30.13;;;9.10;;
2912;SDS011;1466;48.778;9.166;2023-02-16T11:04:07;18.95;;;7.30;;
2912;SDS011;1466;48.778;9.166;2023-02-16T11:07:03;29.30;;;9.68;;
2912;SDS011;1466;48.778;9.166;2023-02-16T11:09:36;28.13;;;9.50;;
2912;SDS011;1466;48.778;9.166;2023-02-16T11:15:21;37.17;;;10.73;;
2912;SDS011;1466;48.778;9.166;2023-02-16T11:17:50;23.67;;;8.55;;
2912;SDS011;1466;48.778;9.166;2023-02-16T11:23:13;19.60;;;8.63;;
2912;SDS011;1466;48.778;9.166;2023-02-16T11:31:00;34.43;;;9.60;;
2912;SDS011;1466;48.778;9.166;2023-02-16T11:33:33;29.05;;;9.10;;
2912;SDS011;1466;48.778;9.166;2023-02-16T11:36:01;24.52;;;8.73;;
2912;SDS011;1466;48.778;9.166;2023-02-16T11:38:41;19.88;;;8.82;;
2912;SDS011;1466;48.778;9.166;2023-02-16T11:41:23;35.55;;;10.27;;
2912;SDS011;1466;48.778;9.166;2023-02-16T11:43:50;44.40;;;11.48;;
2912;SDS011;1466;48.778;9.166;2023-02-16T11:46:17;22.15;;;7.97;;
2912;SDS011;1466;48.778;9.166;2023-02-16T11:48:44;34.55;;;12.70;;
2912;SDS011;1466;48.778;9.166;2023-02-16T11:51:11;31.02;;;11.88;;
2912;SDS011;1466;48.778;9.166;2023-02-16T11:53:40;41.65;;;12.60;;
2912;SDS011;1466;48.778;9.166;2023-02-16T11:56:20;30.27;;;13.35;;
2912;SDS011;1466;48.778;9.166;2023-02-16T12:15:24;22.33;;;9.25;;
2912;SDS011;1466;48.778;9.166;2023-02-16T12:18:00;36.72;;;11.52;;
2912;SDS011;1466;48.778;9.166;2023-02-16T12:20:35;42.60;;;12.93;;
2912;SDS011;1466;48.778;9.166;2023-02-16T12:26:07;32.85;;;11.55;;
2912;SDS011;1466;48.778;9.166;2023-02-16T12:28:47;38.35;;;12.82;;
2912;SDS011;1466;48.778;9.166;2023-02-16T12:42:07;26.05;;;10.23;;
2912;SDS011;1466;48.778;9.166;2023-02-16T12:44:53;41.95;;;12.85;;
2912;SDS011;1466;48.778;9.166;2023-02-16T12:47:26;25.98;;;9.43;;
2912;SDS011;1466;48.778;9.166;2023-02-16T12:50:04;32.10;;;10.30;;
2912;SDS011;1466;48.778;9.166;2023-02-16T12:53:05;31.98;;;10.85;;
2912;SDS011;1466;48.778;9.166;2023-02-16T12:55:36;29.50;;;10.85;;
2912;SDS011;1466;48.778;9.166;2023-02-16T13:11:49;26.27;;;9.73;;
2912;SDS011;1466;48.778;9.166;2023-02-16T13:14:30;24.67;;;9.25;;
2912;SDS011;1466;48.778;9.166;2023-02-16T13:16:59;31.80;;;11.45;;
2912;SDS011;1466;48.778;9.166;2023-02-16T13:19:34;31.35;;;9.80;;
2912;SDS011;1466;48.778;9.166;2023-02-16T13:28:10;19.60;;;8.57;;
2912;SDS011;1466;48.778;9.166;2023-02-16T13:33:17;20.23;;;9.00;;
2912;SDS011;1466;48.778;9.166;2023-02-16T13:39:09;17.90;;;8.77;;
2912;SDS011;1466;48.778;9.166;2023-02-16T13:44:54;25.90;;;8.65;;
2912;SDS011;1466;48.778;9.166;2023-02-16T13:47:25;28.65;;;9.98;;
2912;SDS011;1466;48.778;9.166;2023-02-16T13:49:55;27.90;;;9.73;;
2912;SDS011;1466;48.778;9.166;2023-02-16T13:52:33;23.98;;;10.48;;
2912;SDS011;1466;48.778;9.166;2023-02-16T13:55:03;23.52;;;9.57;;
2912;SDS011;1466;48.778;9.166;2023-02-16T14:05:46;23.10;;;9.80;;
2912;SDS011;1466;48.778;9.166;2023-02-16T14:08:38;24.80;;;9.80;;
2912;SDS011;1466;48.778;9.166;2023-02-16T14:11:07;25.10;;;10.17;;
2912;SDS011;1466;48.778;9.166;2023-02-16T14:16:07;23.83;;;8.95;;
2912;SDS011;1466;48.778;9.166;2023-02-16T14:18:43;35.70;;;10.73;;
2912;SDS011;1466;48.778;9.166;2023-02-16T14:21:38;25.67;;;10.05;;
2912;SDS011;1466;48.778;9.166;2023-02-16T14:24:51;34.60;;;11.77;;
2912;SDS011;1466;48.778;9.166;2023-02-16T14:26:57;22.15;;;9.85;;
2912;SDS011;1466;48.778;9.166;2023-02-16T14:32:15;22.83;;;8.88;;
2912;SDS011;1466;48.778;9.166;2023-02-16T14:34:57;31.65;;;11.52;;
2912;SDS011;1466;48.778;9.166;2023-02-16T14:37:37;29.88;;;9.68;;
2912;SDS011;1466;48.778;9.166;2023-02-16T14:43:26;27.35;;;10.30;;
2912;SDS011;1466;48.778;9.166;2023-02-16T14:58:59;32.55;;;11.55;;
2912;SDS011;1466;48.778;9.166;2023-02-16T15:01:39;28.98;;;10.13;;
2912;SDS011;1466;48.778;9.166;2023-02-16T15:04:07;26.98;;;11.07;;
2912;SDS011;1466;48.778;9.166;2023-02-16T15:06:37;19.38;;;9.68;;
2912;SDS011;1466;48.778;9.166;2023-02-16T15:09:12;29.85;;;11.05;;
2912;SDS011;1466;48.778;9.166;2023-02-16T15:11:54;26.20;;;10.45;;
2912;SDS011;1466;48.778;9.166;2023-02-16T15:17:31;35.88;;;12.05;;
2912;SDS011;1466;48.778;9.166;2023-02-16T15:23:16;30.52;;;10.70;;
2912;SDS011;1466;48.778;9.166;2023-02-16T15:25:59;28.92;;;12.20;;
2912;SDS011;1466;48.778;9.166;2023-02-16T15:28:26;28.60;;;10.60;;
2912;SDS011;1466;48.778;9.166;2023-02-16T15:31:03;27.30;;;11.40;;
2912;SDS011;1466;48.778;9.166;2023-02-16T15:33:38;35.08;;;12.75;;
2912;SDS011;1466;48.778;9.166;2023-02-16T15:36:10;25.63;;;10.70;;
2912;SDS011;1466;48.778;9.166;2023-02-16T15:38:39;23.27;;;11.02;;
2912;SDS011;1466;48.778;9.166;2023-02-16T15:41:23;25.98;;;11.20;;
2912;SDS011;1466;48.778;9.166;2023-02-16T15:44:14;32.75;;;10.70;;
2912;SDS011;1466;48.778;9.166;2023-02-16T15:47:09;22.58;;;9.20;;
2912;SDS011;1466;48.778;9.166;2023-02-16T15:49:37;18.63;;;9.77;;
2912;SDS011;1466;48.778;9.166;2023-02-16T15:52:05;17.93;;;8.50;;
2912;SDS011;1466;48.778;9.166;2023-02-16T15:54:35;21.95;;;9.23;;
2912;SDS011;1466;48.778;9.166;2023-02-16T15:57:03;20.33;;;7.93;;
2912;SDS011;1466;48.778;9.166;2023-02-16T15:59:41;16.00;;;7.32;;
2912;SDS011;1466;48.778;9.166;2023-02-16T16:04:56;17.67;;;6.90;;
2912;SDS011;1466;48.778;9.166;2023-02-16T16:07:25;15.43;;;6.18;;
2912;SDS011;1466;48.778;9.166;2023-02-16T16:10:16;15.65;;;6.38;;
2912;SDS011;1466;48.778;9.166;2023-02-16T16:12:45;16.45;;;6.68;;
2912;SDS011;1466;48.778;9.166;2023-02-16T16:15:19;28.95;;;8.77;;
2912;SDS011;1466;48.778;9.166;2023-02-16T16:17:47;24.27;;;7.47;;
2912;SDS011;1466;48.778;9.166;2023-02-16T16:22:54;23.15;;;7.63;;
2912;SDS011;1466;48.778;9.166;2023-02-16T16:27:54;19.40;;;7.10;;
2912;SDS011;1466;48.778;9.166;2023-02-16T16:33:05;23.38;;;8.45;;
2912;SDS011;1466;48.778;9.166;2023-02-16T16:35:43;19.77;;;6.60;;
2912;SDS011;1466;48.778;9.166;2023-02-16T16:38:25;15.88;;;7.68;;
2912;SDS011;1466;48.778;9.166;2023-02-16T16:40:57;21.20;;;7.35;;
2912;SDS011;1466;48.778;9.166;2023-02-16T16:43:28;23.05;;;9.15;;
2912;SDS011;1466;48.778;9.166;2023-02-16T16:46:08;17.60;;;7.43;;
2912;SDS011;1466;48.778;9.166;2023-02-16T16:48:35;28.25;;;7.78;;
2912;SDS011;1466;48.778;9.166;2023-02-16T16:56:34;26.77;;;8.43;;
2912;SDS011;1466;48.778;9.166;2023-02-16T16:59:01;15.43;;;7.15;;
2912;SDS011;1466;48.778;9.166;2023-02-16T17:01:28;20.88;;;8.07;;
2912;SDS011;1466;48.778;9.166;2023-02-16T17:03:54;19.60;;;8.10;;
2912;SDS011;1466;48.778;9.166;2023-02-16T17:06:20;16.03;;;6.23;;
2912;SDS011;1466;48.778;9.166;2023-02-16T17:08:46;20.80;;;6.97;;
2912;SDS011;1466;48.778;9.166;2023-02-16T17:11:17;20.07;;;7.53;;
2912;SDS011;1466;48.778;9.166;2023-02-16T17:13:49;14.27;;;7.10;;
2912;SDS011;1466;48.778;9.166;2023-02-16T17:16:18;16.20;;;6.88;;
2912;SDS011;1466;48.778;9.166;2023-02-16T17:18:48;23.05;;;8.13;;
2912;SDS011;1466;48.778;9.166;2023-02-16T17:21:14;17.70;;;7.40;;
2912;SDS011;1466;48.778;9.166;2023-02-16T17:23:40;33.85;;;8.40;;
2912;SDS011;1466;48.778;9.166;2023-02-16T17:26:05;28.50;;;8.90;;
2912;SDS011;1466;48.778;9.166;2023-02-16T17:28:31;17.27;;;7.47;;
2912;SDS011;1466;48.778;9.166;2023-02-16T17:31:01;25.63;;;8.57;;
2912;SDS011;1466;48.778;9.166;2023-02-16T17:33:27;21.05;;;7.38;;
2912;SDS011;1466;48.778;9.166;2023-02-16T17:35:54;15.02;;;6.88;;
2912;SDS011;1466;48.778;9.166;2023-02-16T17:38:20;18.70;;;6.77;;
2912;SDS011;1466;48.778;9.166;2023-02-16T17:40:50;24.13;;;9.35;;
2912;SDS011;1466;48.778;9.166;2023-02-16T17:43:18;30.60;;;9.40;;
2912;SDS011;1466;48.778;9.166;2023-02-16T17:45:45;31.77;;;9.85;;
2912;SDS011;1466;48.778;9.166;2023-02-16T17:48:15;15.70;;;7.20;;
2912;SDS011;1466;48.778;9.166;2023-02-16T17:50:54;21.88;;;8.05;;
2912;SDS011;1466;48.778;9.166;2023-02-16T17:53:21;17.27;;;6.75;;
2912;SDS011;1466;48.778;9.166;2023-02-16T17:55:49;32.17;;;8.48;;
2912;SDS011;1466;48.778;9.166;2023-02-16T17:58:17;17.55;;;7.78;;
2912;SDS011;1466;48.778;9.166;2023-02-16T18:00:43;21.25;;;7.40;;
2912;SDS011;1466;48.778;9.166;2023-02-16T18:03:10;27.27;;;9.45;;
2912;SDS011;1466;48.778;9.166;2023-02-16T18:05:35;21.13;;;8.60;;
2912;SDS011;1466;48.778;9.166;2023-02-16T18:08:02;24.00;;;9.55;;
2912;SDS011;1466;48.778;9.166;2023-02-16T18:13:02;22.02;;;8.65;;
2912;SDS011;1466;48.778;9.166;2023-02-16T18:15:29;19.73;;;8.57;;
2912;SDS011;1466;48.778;9.166;2023-02-16T18:17:55;21.57;;;8.10;;
2912;SDS011;1466;48.778;9.166;2023-02-16T18:20:21;20.85;;;8.90;;
2912;SDS011;1466;48.778;9.166;2023-02-16T18:22:46;30.30;;;8.40;;
2912;SDS011;1466;48.778;9.166;2023-02-16T18:25:12;21.20;;;8.60;;